I Boat 2 — 2CMM8 — position and weather

sailwx.info

Track history (hours):
 
Tides and Currents Weather Stations Pressure Air Temp Water Temp Dewpoint Dewpoint Depression Visibility Wind Speed Wind Dir Waves Ship Positions

I Boat 2

Last reported at 2016-Jul-01 22:34 UTC. Time now 2016-Jul-01 22:40 UTC.
Position N 43°56' E 010°10'.

Length 40 m; draft 2.4 m.

Type: Pleasure craft. MMSI: 235074051.

Date/timePositionNaut miles runAvg speedWind from/ knotsBaromVisibWave heightAir tempDewpointWater temp
2016-Jul-01 22:34N 43°56' E 010°10'3 2.7
2016-Jul-01 21:32N 43°58' E 010°08'0 0.0
2016-Jul-01 20:32N 43°58' E 010°08'0 0.0
2016-Jul-01 19:32N 43°58' E 010°08'0 0.0
2016-Jul-01 18:32N 43°58' E 010°08'0 0.0
2016-Jul-01 17:32N 43°58' E 010°08'8 8.5
2016-Jul-01 16:33N 44°00' E 009°57'4 4.1
2016-Jul-01 15:31N 44°02' E 009°51'0 0.0
2016-Jul-01 14:31N 44°02' E 009°51'0 0.0
2016-Jul-01 13:31N 44°02' E 009°51'0 0.0
2016-Jul-01 12:31N 44°02' E 009°51'2 1.6
2016-Jul-01 11:33N 44°03' E 009°51'0 0.1
2016-Jul-01 10:33N 44°03' E 009°51'0 0.0
2016-Jul-01 09:33N 44°03' E 009°51'0 0.0
2016-Jul-01 08:33N 44°03' E 009°51'0 0.0
2016-Jul-01 07:33N 44°03' E 009°51'0 0.0
2016-Jul-01 06:33N 44°03' E 009°51'0 0.0
2016-Jul-01 05:33N 44°03' E 009°51'0 0.0
2016-Jul-01 04:33N 44°03' E 009°51'0 0.0
2016-Jul-01 03:33N 44°03' E 009°51'0 0.0
2016-Jul-01 02:33N 44°03' E 009°51'0 0.0
2016-Jul-01 01:33N 44°03' E 009°51'0 0.0
2016-Jul-01 00:33N 44°03' E 009°51'0 0.0
2016-Jun-30 23:33N 44°03' E 009°51'0 0.0
2016-Jun-30 22:33N 44°03' E 009°51'0 0.0
2016-Jun-30 21:33N 44°03' E 009°51'0 0.0
2016-Jun-30 20:33N 44°03' E 009°51'0 0.0
2016-Jun-30 19:33N 44°03' E 009°51'1 0.6
2016-Jun-30 18:34N 44°03' E 009°52'2 2.3
2016-Jun-30 17:29N 44°04' E 009°48'0 0.0
2016-Jun-30 16:32N 44°04' E 009°48'0 0.0
2016-Jun-30 15:32N 44°04' E 009°48'0 0.0
2016-Jun-30 14:32N 44°04' E 009°48'0 0.0
2016-Jun-30 13:32N 44°04' E 009°48'3 2.8
2016-Jun-30 12:33N 44°05' E 009°51'0 0.3
2016-Jun-30 11:32N 44°06' E 009°51'0 0.0
2016-Jun-30 10:33N 44°06' E 009°51'0 0.0
2016-Jun-30 09:33N 44°06' E 009°51'0 0.0
2016-Jun-30 08:33N 44°06' E 009°51'  
2016-Jun-26 16:34N 44°06' E 009°51'2 2.3
2016-Jun-26 15:31N 44°03' E 009°51'0 0.0
2016-Jun-26 14:31N 44°03' E 009°51'0 0.0
2016-Jun-26 13:31N 44°03' E 009°51'0 0.0
2016-Jun-26 12:31N 44°03' E 009°51'0 0.0
2016-Jun-26 11:31N 44°03' E 009°51'1 0.7
2016-Jun-26 10:33N 44°03' E 009°50'0 0.0
2016-Jun-26 09:32N 44°03' E 009°50'0 0.0
2016-Jun-26 08:29N 44°03' E 009°50'0 0.0
2016-Jun-26 07:32N 44°03' E 009°50'0 0.0
2016-Jun-26 06:32N 44°03' E 009°50'0 0.0
2016-Jun-26 05:32N 44°03' E 009°50'0 0.0
2016-Jun-26 04:29N 44°03' E 009°50'0 0.0
2016-Jun-26 03:32N 44°03' E 009°50'0 0.0
2016-Jun-26 02:32N 44°03' E 009°50'0 0.0
2016-Jun-26 01:32N 44°03' E 009°50'0 0.0
2016-Jun-26 00:32N 44°03' E 009°50'0 0.0
2016-Jun-25 23:26N 44°03' E 009°50'0 0.0
2016-Jun-25 22:32N 44°03' E 009°50'0 0.0
2016-Jun-25 21:29N 44°03' E 009°50'0 0.0
2016-Jun-25 20:32N 44°03' E 009°50'0 0.0
2016-Jun-25 19:32N 44°03' E 009°50'0 0.0
2016-Jun-25 18:32N 44°03' E 009°50'2 1.6
2016-Jun-25 17:33N 44°04' E 009°52'1 1.3
2016-Jun-25 16:31N 44°05' E 009°53'0 0.0
2016-Jun-25 15:31N 44°05' E 009°53'0 0.0
2016-Jun-25 14:31N 44°05' E 009°53'0 0.0
2016-Jun-25 13:31N 44°05' E 009°53'0 0.0
2016-Jun-25 12:31N 44°05' E 009°53'0 0.0
2016-Jun-25 11:31N 44°05' E 009°53'4 4.1
2016-Jun-25 10:34N 44°01' E 009°51'2 1.7
2016-Jun-25 09:32N 44°03' E 009°51'0 0.0
2016-Jun-25 08:32N 44°03' E 009°51'0 0.0
2016-Jun-25 07:32N 44°03' E 009°51'0 0.0
2016-Jun-25 06:32N 44°03' E 009°51'0 0.0
2016-Jun-25 05:32N 44°03' E 009°51'0 0.0
2016-Jun-25 04:32N 44°03' E 009°51'0 0.0
2016-Jun-25 03:32N 44°03' E 009°51'0 0.0
2016-Jun-25 02:32N 44°03' E 009°51'0 0.0
2016-Jun-25 01:29N 44°03' E 009°51'0 0.0
2016-Jun-25 00:32N 44°03' E 009°51'0 0.0
2016-Jun-24 23:32N 44°03' E 009°51'0 0.0
2016-Jun-24 22:32N 44°03' E 009°51'5 0.9
2016-Jun-24 16:17N 44°02' E 009°59'6 8.9
2016-Jun-24 15:34N 44°06' E 009°52'0 0.0
2016-Jun-24 14:30N 44°06' E 009°51'0 0.0
2016-Jun-24 13:33N 44°06' E 009°51'0 0.0
2016-Jun-24 12:30N 44°06' E 009°51'0 0.0
2016-Jun-24 11:33N 44°06' E 009°51'0 0.0
2016-Jun-24 10:33N 44°06' E 009°51'0 0.0
2016-Jun-24 09:33N 44°06' E 009°51'0 0.0
2016-Jun-24 08:33N 44°06' E 009°51'  
Track history (hours):
 
Tides and Currents Weather Stations Pressure Air Temp Water Temp Dewpoint Dewpoint Depression Visibility Wind Speed Wind Dir Waves Ship Positions

I Boat 2

Last reported at 2016-Jul-01 22:34 UTC. Time now 2016-Jul-01 22:40 UTC.
Position N 43°56' E 010°10'.

Length 40 m; draft 2.4 m.

Type: Pleasure craft. MMSI: 235074051.

Date/timePositionNaut miles runAvg speedWind from/ knotsBaromVisibWave heightAir tempDewpointWater temp
2016-Jul-01 22:34N 43°56' E 010°10'3 2.7
2016-Jul-01 21:32N 43°58' E 010°08'0 0.0
2016-Jul-01 20:32N 43°58' E 010°08'0 0.0
2016-Jul-01 19:32N 43°58' E 010°08'0 0.0
2016-Jul-01 18:32N 43°58' E 010°08'0 0.0
2016-Jul-01 17:32N 43°58' E 010°08'8 8.5
2016-Jul-01 16:33N 44°00' E 009°57'4 4.1
2016-Jul-01 15:31N 44°02' E 009°51'0 0.0
2016-Jul-01 14:31N 44°02' E 009°51'0 0.0
2016-Jul-01 13:31N 44°02' E 009°51'0 0.0
2016-Jul-01 12:31N 44°02' E 009°51'2 1.6
2016-Jul-01 11:33N 44°03' E 009°51'0 0.1
2016-Jul-01 10:33N 44°03' E 009°51'0 0.0
2016-Jul-01 09:33N 44°03' E 009°51'0 0.0
2016-Jul-01 08:33N 44°03' E 009°51'0 0.0
2016-Jul-01 07:33N 44°03' E 009°51'0 0.0
2016-Jul-01 06:33N 44°03' E 009°51'0 0.0
2016-Jul-01 05:33N 44°03' E 009°51'0 0.0
2016-Jul-01 04:33N 44°03' E 009°51'0 0.0
2016-Jul-01 03:33N 44°03' E 009°51'0 0.0
2016-Jul-01 02:33N 44°03' E 009°51'0 0.0
2016-Jul-01 01:33N 44°03' E 009°51'0 0.0
2016-Jul-01 00:33N 44°03' E 009°51'0 0.0
2016-Jun-30 23:33N 44°03' E 009°51'0 0.0
2016-Jun-30 22:33N 44°03' E 009°51'0 0.0
2016-Jun-30 21:33N 44°03' E 009°51'0 0.0
2016-Jun-30 20:33N 44°03' E 009°51'0 0.0
2016-Jun-30 19:33N 44°03' E 009°51'1 0.6
2016-Jun-30 18:34N 44°03' E 009°52'2 2.3
2016-Jun-30 17:29N 44°04' E 009°48'0 0.0
2016-Jun-30 16:32N 44°04' E 009°48'0 0.0
2016-Jun-30 15:32N 44°04' E 009°48'0 0.0
2016-Jun-30 14:32N 44°04' E 009°48'0 0.0
2016-Jun-30 13:32N 44°04' E 009°48'3 2.8
2016-Jun-30 12:33N 44°05' E 009°51'0 0.3
2016-Jun-30 11:32N 44°06' E 009°51'0 0.0
2016-Jun-30 10:33N 44°06' E 009°51'0 0.0
2016-Jun-30 09:33N 44°06' E 009°51'0 0.0
2016-Jun-30 08:33N 44°06' E 009°51'  
2016-Jun-26 16:34N 44°06' E 009°51'2 2.3
2016-Jun-26 15:31N 44°03' E 009°51'0 0.0
2016-Jun-26 14:31N 44°03' E 009°51'0 0.0
2016-Jun-26 13:31N 44°03' E 009°51'0 0.0
2016-Jun-26 12:31N 44°03' E 009°51'0 0.0
2016-Jun-26 11:31N 44°03' E 009°51'1 0.7
2016-Jun-26 10:33N 44°03' E 009°50'0 0.0
2016-Jun-26 09:32N 44°03' E 009°50'0 0.0
2016-Jun-26 08:29N 44°03' E 009°50'0 0.0
2016-Jun-26 07:32N 44°03' E 009°50'0 0.0
2016-Jun-26 06:32N 44°03' E 009°50'0 0.0
2016-Jun-26 05:32N 44°03' E 009°50'0 0.0
2016-Jun-26 04:29N 44°03' E 009°50'0 0.0
2016-Jun-26 03:32N 44°03' E 009°50'0 0.0
2016-Jun-26 02:32N 44°03' E 009°50'0 0.0
2016-Jun-26 01:32N 44°03' E 009°50'0 0.0
2016-Jun-26 00:32N 44°03' E 009°50'0 0.0
2016-Jun-25 23:26N 44°03' E 009°50'0 0.0
2016-Jun-25 22:32N 44°03' E 009°50'0 0.0
2016-Jun-25 21:29N 44°03' E 009°50'0 0.0
2016-Jun-25 20:32N 44°03' E 009°50'0 0.0
2016-Jun-25 19:32N 44°03' E 009°50'0 0.0
2016-Jun-25 18:32N 44°03' E 009°50'2 1.6
2016-Jun-25 17:33N 44°04' E 009°52'1 1.3
2016-Jun-25 16:31N 44°05' E 009°53'0 0.0
2016-Jun-25 15:31N 44°05' E 009°53'0 0.0
2016-Jun-25 14:31N 44°05' E 009°53'0 0.0
2016-Jun-25 13:31N 44°05' E 009°53'0 0.0
2016-Jun-25 12:31N 44°05' E 009°53'0 0.0
2016-Jun-25 11:31N 44°05' E 009°53'4 4.1
2016-Jun-25 10:34N 44°01' E 009°51'2 1.7
2016-Jun-25 09:32N 44°03' E 009°51'0 0.0
2016-Jun-25 08:32N 44°03' E 009°51'0 0.0
2016-Jun-25 07:32N 44°03' E 009°51'0 0.0
2016-Jun-25 06:32N 44°03' E 009°51'0 0.0
2016-Jun-25 05:32N 44°03' E 009°51'0 0.0
2016-Jun-25 04:32N 44°03' E 009°51'0 0.0
2016-Jun-25 03:32N 44°03' E 009°51'0 0.0
2016-Jun-25 02:32N 44°03' E 009°51'0 0.0
2016-Jun-25 01:29N 44°03' E 009°51'0 0.0
2016-Jun-25 00:32N 44°03' E 009°51'0 0.0
2016-Jun-24 23:32N 44°03' E 009°51'0 0.0
2016-Jun-24 22:32N 44°03' E 009°51'5 0.9
2016-Jun-24 16:17N 44°02' E 009°59'6 8.9
2016-Jun-24 15:34N 44°06' E 009°52'0 0.0
2016-Jun-24 14:30N 44°06' E 009°51'0 0.0
2016-Jun-24 13:33N 44°06' E 009°51'0 0.0
2016-Jun-24 12:30N 44°06' E 009°51'0 0.0
2016-Jun-24 11:33N 44°06' E 009°51'0 0.0
2016-Jun-24 10:33N 44°06' E 009°51'0 0.0
2016-Jun-24 09:33N 44°06' E 009°51'0 0.0
2016-Jun-24 08:33N 44°06' E 009°51'  

Dump ship's entire track history